Chapel Hill, NC (27514)

11:51 PM EDT on June 29, 2015 (GMT -0400)
Cosgrove Hill | | Change Station
CLOSE
Current Station
Personal Weather Station
Location: Chapel Hill, NC
Elevation: 325 ft
Nearby Weather Stations

Elev 325 ft 35.95 °N, 79.02 °W | Updated 9 minutes ago

Overcast
Overcast
71.2 °F
Feels Like 71.2 °F
N
0.0
Wind Variable Wind from WNW
Gusts 0.0 mph

Today
High -- | Low -- °F
--% Chance of Precip.
Yesterday
High -- | Low -- °F
Precip. -- in
6:02 AM 8:36 PM
Waxing Gibbous, 95% visible
Pressure 29.95 in
Visibility 10.0 miles
Clouds Overcast 10000 ft
Dew Point 68 °F
Humidity 88%
Rainfall in
Snow Depth Not available.
UV 0 out of 12
Pollen 3.40 out of 12
Air Quality Not available.
Flu Activity No Activity
METAR KIGX 300156Z AUTO 00000KT 10SM OVC100 22/17 A2996 RMK AO2 SLP140 T02220172 TSNO

More Conditions Fewer Conditions

Pressure 29.95 in
Visibility 10.0 miles
Clouds Overcast 10000 ft
Dew Point 68 °F
Humidity 88%
Rainfall in
Snow Depth Not available.
UV 0 out of 12
Pollen 3.40 out of 12
Air Quality Not available.
Flu Activity No Activity
METAR KIGX 300156Z AUTO 00000KT 10SM OVC100 22/17 A2996 RMK AO2 SLP140 T02220172 TSNO

More Conditions Fewer Conditions

10-Day Weather Forecast

×

Almanac

Astronomy

Jun. 29, 2015 Rise Set
Actual Time
Civil Twilight
Nautical Twilight
Astronomical Twilight
Moon
Length of Visible Light
Length of Day
Tomorrow will be .
, % of the Moon is Illuminated

Today's Extremes

State Highs State Lows

Community

WunderPhotos

Upload Photos

1,833,956 photos uploaded!

WunderBlogs® & News

Nearby

Air Quality

  Air Quality AQ Index Pollutant
Not available.

Snow Depth

Station Depth Elevation

Earthquake Activity

City Distance Mag. Time & Date
Minimum magnitude displayed is 2.5.

Coastal Water Temperatures

Place Temperature

Stations

Nearby Weather Stations

Station Location Temp. Windchill Dew Point Humidity Wind Precip. Elev Updated Type